logo
Search for airport 
image banner adimage banner adimage banner ad
image banner ad

EHJR - K13-A

Located in , Netherlands

ICAO - , IATA -

Data provided by Airmate  

General information

Coordinates: N53°13'2" E3°13'8"
Elevation is feet MSL.
 
View others Airports in Noord-Holland

Operational data

Special qualification required
Current time UTC:
Current local time:
Weather
METAR: EHJR 260755Z AUTO 05029KT //// // ///////// 07/03 Q1007 RE// W08/H18
View NOTAMs / SUP AIP / TFR affecting this airport [VIEW]
Communications frequencies: [VIEW]

Runways:

Airport contact information

Address: Netherlands

Satellite view of EHJR